sensor_id;sensor_type;location;lat;lon;timestamp;temperature;humidity
4795;DHT22;2411;47.060;15.064;2023-12-20T00:01:08;0.20;1.00
4795;DHT22;2411;47.060;15.064;2023-12-20T00:03:36;0.20;1.00
4795;DHT22;2411;47.060;15.064;2023-12-20T00:06:09;0.20;1.00
4795;DHT22;2411;47.060;15.064;2023-12-20T00:08:37;0.10;1.00
4795;DHT22;2411;47.060;15.064;2023-12-20T00:11:04;0.10;1.00
4795;DHT22;2411;47.060;15.064;2023-12-20T00:13:31;0.30;1.00
4795;DHT22;2411;47.060;15.064;2023-12-20T00:15:59;0.40;1.00
4795;DHT22;2411;47.060;15.064;2023-12-20T00:18:26;0.30;1.00
4795;DHT22;2411;47.060;15.064;2023-12-20T00:20:54;0.20;1.00
4795;DHT22;2411;47.060;15.064;2023-12-20T00:23:21;0.00;1.00
4795;DHT22;2411;47.060;15.064;2023-12-20T00:25:50;0.00;1.00
4795;DHT22;2411;47.060;15.064;2023-12-20T00:28:17;0.00;1.00
4795;DHT22;2411;47.060;15.064;2023-12-20T00:30:45;-0.10;1.00
4795;DHT22;2411;47.060;15.064;2023-12-20T00:33:13;-0.10;1.00
4795;DHT22;2411;47.060;15.064;2023-12-20T00:35:40;-0.20;1.00
4795;DHT22;2411;47.060;15.064;2023-12-20T00:38:08;-0.20;1.00
4795;DHT22;2411;47.060;15.064;2023-12-20T00:40:36;-0.20;1.00
4795;DHT22;2411;47.060;15.064;2023-12-20T00:43:03;-0.10;1.00
4795;DHT22;2411;47.060;15.064;2023-12-20T00:45:31;0.00;1.00
4795;DHT22;2411;47.060;15.064;2023-12-20T00:47:58;0.20;1.00
4795;DHT22;2411;47.060;15.064;2023-12-20T00:50:26;0.10;1.00
4795;DHT22;2411;47.060;15.064;2023-12-20T00:52:56;-0.20;1.00
4795;DHT22;2411;47.060;15.064;2023-12-20T00:55:24;-0.10;1.00
4795;DHT22;2411;47.060;15.064;2023-12-20T00:57:51;0.00;1.00
4795;DHT22;2411;47.060;15.064;2023-12-20T01:00:20;0.00;1.00
4795;DHT22;2411;47.060;15.064;2023-12-20T01:02:48;0.10;1.00
4795;DHT22;2411;47.060;15.064;2023-12-20T01:05:18;0.20;1.00
4795;DHT22;2411;47.060;15.064;2023-12-20T01:07:46;0.20;1.00
4795;DHT22;2411;47.060;15.064;2023-12-20T01:10:14;0.10;1.00
4795;DHT22;2411;47.060;15.064;2023-12-20T01:12:41;-0.20;1.00
4795;DHT22;2411;47.060;15.064;2023-12-20T01:15:09;-0.50;1.00
4795;DHT22;2411;47.060;15.064;2023-12-20T01:17:36;-0.50;1.00
4795;DHT22;2411;47.060;15.064;2023-12-20T01:20:04;-0.50;1.00
4795;DHT22;2411;47.060;15.064;2023-12-20T01:22:32;-0.30;1.00
4795;DHT22;2411;47.060;15.064;2023-12-20T01:24:59;-0.30;1.00
4795;DHT22;2411;47.060;15.064;2023-12-20T01:27:26;-0.20;1.00
4795;DHT22;2411;47.060;15.064;2023-12-20T01:29:54;-0.30;1.00
4795;DHT22;2411;47.060;15.064;2023-12-20T01:32:21;-0.30;1.00
4795;DHT22;2411;47.060;15.064;2023-12-20T01:34:48;-0.30;1.00
4795;DHT22;2411;47.060;15.064;2023-12-20T01:37:16;-0.20;1.00
4795;DHT22;2411;47.060;15.064;2023-12-20T01:39:43;-0.30;1.00
4795;DHT22;2411;47.060;15.064;2023-12-20T01:42:11;-0.30;1.00
4795;DHT22;2411;47.060;15.064;2023-12-20T01:44:38;-0.40;1.00
4795;DHT22;2411;47.060;15.064;2023-12-20T01:47:06;-0.40;1.00
4795;DHT22;2411;47.060;15.064;2023-12-20T01:49:33;-0.60;1.00
4795;DHT22;2411;47.060;15.064;2023-12-20T01:52:01;-0.60;1.00
4795;DHT22;2411;47.060;15.064;2023-12-20T01:54:28;-0.60;1.00
4795;DHT22;2411;47.060;15.064;2023-12-20T01:56:56;-0.40;1.00
4795;DHT22;2411;47.060;15.064;2023-12-20T01:59:23;-0.50;1.00
4795;DHT22;2411;47.060;15.064;2023-12-20T02:01:50;-0.50;1.00
4795;DHT22;2411;47.060;15.064;2023-12-20T02:04:18;-0.60;1.00
4795;DHT22;2411;47.060;15.064;2023-12-20T02:06:46;-0.60;1.00
4795;DHT22;2411;47.060;15.064;2023-12-20T02:09:15;-0.70;1.00
4795;DHT22;2411;47.060;15.064;2023-12-20T02:11:43;-0.60;1.00
4795;DHT22;2411;47.060;15.064;2023-12-20T02:14:10;-0.60;1.00
4795;DHT22;2411;47.060;15.064;2023-12-20T02:16:38;-0.60;1.00
4795;DHT22;2411;47.060;15.064;2023-12-20T02:19:09;-0.50;1.00
4795;DHT22;2411;47.060;15.064;2023-12-20T02:21:40;-0.40;1.00
4795;DHT22;2411;47.060;15.064;2023-12-20T02:24:07;-0.50;1.00
4795;DHT22;2411;47.060;15.064;2023-12-20T02:26:34;-0.50;1.00
4795;DHT22;2411;47.060;15.064;2023-12-20T02:29:02;-0.60;1.00
4795;DHT22;2411;47.060;15.064;2023-12-20T02:31:29;-0.70;1.00
4795;DHT22;2411;47.060;15.064;2023-12-20T02:33:57;-0.70;1.00
4795;DHT22;2411;47.060;15.064;2023-12-20T02:36:24;-0.70;1.00
4795;DHT22;2411;47.060;15.064;2023-12-20T02:38:51;-0.70;1.00
4795;DHT22;2411;47.060;15.064;2023-12-20T02:41:19;-0.70;1.00
4795;DHT22;2411;47.060;15.064;2023-12-20T02:43:47;-0.60;1.00
4795;DHT22;2411;47.060;15.064;2023-12-20T02:46:15;-0.50;1.00
4795;DHT22;2411;47.060;15.064;2023-12-20T02:48:44;-0.50;1.00
4795;DHT22;2411;47.060;15.064;2023-12-20T02:51:11;-0.60;1.00
4795;DHT22;2411;47.060;15.064;2023-12-20T02:53:39;-0.50;1.00
4795;DHT22;2411;47.060;15.064;2023-12-20T02:56:06;-0.30;1.00
4795;DHT22;2411;47.060;15.064;2023-12-20T02:58:33;-0.10;1.00
4795;DHT22;2411;47.060;15.064;2023-12-20T03:01:01;-0.10;1.00
4795;DHT22;2411;47.060;15.064;2023-12-20T03:03:28;-0.30;1.00
4795;DHT22;2411;47.060;15.064;2023-12-20T03:05:55;-0.30;1.00
4795;DHT22;2411;47.060;15.064;2023-12-20T03:08:23;-0.50;1.00
4795;DHT22;2411;47.060;15.064;2023-12-20T03:10:50;-0.70;1.00
4795;DHT22;2411;47.060;15.064;2023-12-20T03:13:18;-1.00;1.00
4795;DHT22;2411;47.060;15.064;2023-12-20T03:15:45;-1.20;1.00
4795;DHT22;2411;47.060;15.064;2023-12-20T03:18:13;-1.30;1.00
4795;DHT22;2411;47.060;15.064;2023-12-20T03:20:40;-0.90;1.00
4795;DHT22;2411;47.060;15.064;2023-12-20T03:23:08;-0.50;1.00
4795;DHT22;2411;47.060;15.064;2023-12-20T03:25:36;-0.20;1.00
4795;DHT22;2411;47.060;15.064;2023-12-20T03:28:03;0.00;1.00
4795;DHT22;2411;47.060;15.064;2023-12-20T03:30:31;0.60;1.00
4795;DHT22;2411;47.060;15.064;2023-12-20T03:32:58;0.90;1.00
4795;DHT22;2411;47.060;15.064;2023-12-20T03:35:25;1.40;1.00
4795;DHT22;2411;47.060;15.064;2023-12-20T03:37:53;0.70;1.00
4795;DHT22;2411;47.060;15.064;2023-12-20T03:40:20;-0.20;1.00
4795;DHT22;2411;47.060;15.064;2023-12-20T03:42:49;-0.30;1.00
4795;DHT22;2411;47.060;15.064;2023-12-20T03:45:17;-0.20;1.00
4795;DHT22;2411;47.060;15.064;2023-12-20T03:47:44;-0.30;1.00
4795;DHT22;2411;47.060;15.064;2023-12-20T03:50:12;-0.30;1.00
4795;DHT22;2411;47.060;15.064;2023-12-20T03:52:39;-0.20;1.00
4795;DHT22;2411;47.060;15.064;2023-12-20T03:55:06;-0.10;1.00
4795;DHT22;2411;47.060;15.064;2023-12-20T03:57:34;-0.30;1.00
4795;DHT22;2411;47.060;15.064;2023-12-20T04:00:01;-0.40;1.00
4795;DHT22;2411;47.060;15.064;2023-12-20T04:02:28;-0.60;1.00
4795;DHT22;2411;47.060;15.064;2023-12-20T04:04:56;-0.90;1.00
4795;DHT22;2411;47.060;15.064;2023-12-20T04:07:23;-1.00;1.00
4795;DHT22;2411;47.060;15.064;2023-12-20T04:09:50;-1.20;1.00
4795;DHT22;2411;47.060;15.064;2023-12-20T04:12:18;-1.10;1.00
4795;DHT22;2411;47.060;15.064;2023-12-20T04:14:45;-1.10;1.00
4795;DHT22;2411;47.060;15.064;2023-12-20T04:17:14;-1.00;1.00
4795;DHT22;2411;47.060;15.064;2023-12-20T04:19:43;-0.90;1.00
4795;DHT22;2411;47.060;15.064;2023-12-20T04:22:10;-0.90;1.00
4795;DHT22;2411;47.060;15.064;2023-12-20T04:24:37;-0.80;1.00
4795;DHT22;2411;47.060;15.064;2023-12-20T04:27:05;-0.80;1.00
4795;DHT22;2411;47.060;15.064;2023-12-20T04:29:32;-0.70;1.00
4795;DHT22;2411;47.060;15.064;2023-12-20T04:32:00;-0.40;1.00
4795;DHT22;2411;47.060;15.064;2023-12-20T04:34:27;-0.40;1.00
4795;DHT22;2411;47.060;15.064;2023-12-20T04:36:55;-0.30;1.00
4795;DHT22;2411;47.060;15.064;2023-12-20T04:39:22;-0.30;1.00
4795;DHT22;2411;47.060;15.064;2023-12-20T04:41:50;-0.30;1.00
4795;DHT22;2411;47.060;15.064;2023-12-20T04:44:17;-0.30;1.00
4795;DHT22;2411;47.060;15.064;2023-12-20T04:46:44;-0.20;1.00
4795;DHT22;2411;47.060;15.064;2023-12-20T04:49:12;-0.10;1.00
4795;DHT22;2411;47.060;15.064;2023-12-20T04:51:39;-0.10;1.00
4795;DHT22;2411;47.060;15.064;2023-12-20T04:54:06;-0.30;1.00
4795;DHT22;2411;47.060;15.064;2023-12-20T04:56:34;-0.40;1.00
4795;DHT22;2411;47.060;15.064;2023-12-20T04:59:01;-0.40;1.00
4795;DHT22;2411;47.060;15.064;2023-12-20T05:01:28;-0.30;1.00
4795;DHT22;2411;47.060;15.064;2023-12-20T05:03:56;-0.10;1.00
4795;DHT22;2411;47.060;15.064;2023-12-20T05:06:23;-0.10;1.00
4795;DHT22;2411;47.060;15.064;2023-12-20T05:08:51;-0.20;1.00
4795;DHT22;2411;47.060;15.064;2023-12-20T05:11:19;-0.40;1.00
4795;DHT22;2411;47.060;15.064;2023-12-20T05:13:46;-0.50;1.00
4795;DHT22;2411;47.060;15.064;2023-12-20T05:16:17;-1.00;1.00
4795;DHT22;2411;47.060;15.064;2023-12-20T05:18:47;-1.00;1.00
4795;DHT22;2411;47.060;15.064;2023-12-20T05:21:15;-0.70;1.00
4795;DHT22;2411;47.060;15.064;2023-12-20T05:23:42;-0.40;1.00
4795;DHT22;2411;47.060;15.064;2023-12-20T05:26:09;-0.40;1.00
4795;DHT22;2411;47.060;15.064;2023-12-20T05:28:37;-0.30;1.00
4795;DHT22;2411;47.060;15.064;2023-12-20T05:31:04;-0.40;1.00
4795;DHT22;2411;47.060;15.064;2023-12-20T05:33:31;-0.30;1.00
4795;DHT22;2411;47.060;15.064;2023-12-20T05:35:59;0.00;1.00
4795;DHT22;2411;47.060;15.064;2023-12-20T05:38:26;0.00;1.00
4795;DHT22;2411;47.060;15.064;2023-12-20T05:40:54;0.10;1.00
4795;DHT22;2411;47.060;15.064;2023-12-20T05:43:21;0.20;1.00
4795;DHT22;2411;47.060;15.064;2023-12-20T05:45:48;0.20;1.00
4795;DHT22;2411;47.060;15.064;2023-12-20T05:48:16;0.30;1.00
4795;DHT22;2411;47.060;15.064;2023-12-20T05:50:43;0.20;1.00
4795;DHT22;2411;47.060;15.064;2023-12-20T05:53:11;0.00;1.00
4795;DHT22;2411;47.060;15.064;2023-12-20T05:55:38;-0.30;1.00
4795;DHT22;2411;47.060;15.064;2023-12-20T05:58:05;-0.50;1.00
4795;DHT22;2411;47.060;15.064;2023-12-20T06:00:33;-0.60;1.00
4795;DHT22;2411;47.060;15.064;2023-12-20T06:03:00;-0.50;1.00
4795;DHT22;2411;47.060;15.064;2023-12-20T06:05:28;-0.40;1.00
4795;DHT22;2411;47.060;15.064;2023-12-20T06:07:55;-0.20;1.00
4795;DHT22;2411;47.060;15.064;2023-12-20T06:10:28;0.10;1.00
4795;DHT22;2411;47.060;15.064;2023-12-20T06:12:55;0.20;1.00
4795;DHT22;2411;47.060;15.064;2023-12-20T06:15:24;0.10;1.00
4795;DHT22;2411;47.060;15.064;2023-12-20T06:17:51;0.10;1.00
4795;DHT22;2411;47.060;15.064;2023-12-20T06:20:19;0.10;1.00
4795;DHT22;2411;47.060;15.064;2023-12-20T06:22:46;0.90;1.00
4795;DHT22;2411;47.060;15.064;2023-12-20T06:25:13;0.40;1.00
4795;DHT22;2411;47.060;15.064;2023-12-20T06:27:41;0.30;1.00
4795;DHT22;2411;47.060;15.064;2023-12-20T06:30:09;0.20;1.00
4795;DHT22;2411;47.060;15.064;2023-12-20T06:32:37;0.20;1.00
4795;DHT22;2411;47.060;15.064;2023-12-20T06:35:05;0.20;1.00
4795;DHT22;2411;47.060;15.064;2023-12-20T06:37:33;0.20;1.00
4795;DHT22;2411;47.060;15.064;2023-12-20T06:40:00;0.30;1.00
4795;DHT22;2411;47.060;15.064;2023-12-20T06:42:28;0.30;1.00
4795;DHT22;2411;47.060;15.064;2023-12-20T06:44:59;0.30;1.00
4795;DHT22;2411;47.060;15.064;2023-12-20T06:47:26;0.30;1.00
4795;DHT22;2411;47.060;15.064;2023-12-20T06:49:53;0.30;1.00
4795;DHT22;2411;47.060;15.064;2023-12-20T06:52:21;0.30;1.00
4795;DHT22;2411;47.060;15.064;2023-12-20T06:54:48;0.40;1.00
4795;DHT22;2411;47.060;15.064;2023-12-20T06:57:16;0.50;1.00
4795;DHT22;2411;47.060;15.064;2023-12-20T06:59:44;0.60;1.00
4795;DHT22;2411;47.060;15.064;2023-12-20T07:02:11;0.60;1.00
4795;DHT22;2411;47.060;15.064;2023-12-20T07:04:41;0.60;1.00
4795;DHT22;2411;47.060;15.064;2023-12-20T07:07:09;0.60;1.00
4795;DHT22;2411;47.060;15.064;2023-12-20T07:09:36;0.70;1.00
4795;DHT22;2411;47.060;15.064;2023-12-20T07:12:05;0.70;1.00
4795;DHT22;2411;47.060;15.064;2023-12-20T07:14:32;0.80;1.00
4795;DHT22;2411;47.060;15.064;2023-12-20T07:17:00;0.70;1.00
4795;DHT22;2411;47.060;15.064;2023-12-20T07:19:27;0.60;1.00
4795;DHT22;2411;47.060;15.064;2023-12-20T07:21:54;0.70;1.00
4795;DHT22;2411;47.060;15.064;2023-12-20T07:24:22;0.80;1.00
4795;DHT22;2411;47.060;15.064;2023-12-20T07:26:49;0.90;1.00
4795;DHT22;2411;47.060;15.064;2023-12-20T07:29:17;1.10;1.00
4795;DHT22;2411;47.060;15.064;2023-12-20T07:31:45;1.40;1.00
4795;DHT22;2411;47.060;15.064;2023-12-20T07:34:12;1.80;1.00
4795;DHT22;2411;47.060;15.064;2023-12-20T07:36:40;2.00;1.00
4795;DHT22;2411;47.060;15.064;2023-12-20T07:39:07;2.10;1.00
4795;DHT22;2411;47.060;15.064;2023-12-20T07:41:34;2.10;1.00
4795;DHT22;2411;47.060;15.064;2023-12-20T07:44:02;2.20;1.00
4795;DHT22;2411;47.060;15.064;2023-12-20T07:46:29;2.10;1.00
4795;DHT22;2411;47.060;15.064;2023-12-20T07:48:57;2.10;1.00
4795;DHT22;2411;47.060;15.064;2023-12-20T07:51:24;2.10;1.00
4795;DHT22;2411;47.060;15.064;2023-12-20T07:53:52;1.60;1.00
4795;DHT22;2411;47.060;15.064;2023-12-20T07:56:19;1.20;1.00
4795;DHT22;2411;47.060;15.064;2023-12-20T07:58:47;1.00;1.00
4795;DHT22;2411;47.060;15.064;2023-12-20T08:01:20;0.90;1.00
4795;DHT22;2411;47.060;15.064;2023-12-20T08:03:49;1.00;1.00
4795;DHT22;2411;47.060;15.064;2023-12-20T08:06:18;1.20;1.00
4795;DHT22;2411;47.060;15.064;2023-12-20T08:08:45;1.30;1.00
4795;DHT22;2411;47.060;15.064;2023-12-20T08:11:21;1.50;1.00
4795;DHT22;2411;47.060;15.064;2023-12-20T08:13:48;1.60;1.00
4795;DHT22;2411;47.060;15.064;2023-12-20T08:16:16;1.60;1.00
4795;DHT22;2411;47.060;15.064;2023-12-20T08:18:45;1.70;1.00
4795;DHT22;2411;47.060;15.064;2023-12-20T08:21:13;1.80;1.00
4795;DHT22;2411;47.060;15.064;2023-12-20T08:23:40;1.70;1.00
4795;DHT22;2411;47.060;15.064;2023-12-20T08:26:08;1.80;1.00
4795;DHT22;2411;47.060;15.064;2023-12-20T08:28:36;1.80;1.00
4795;DHT22;2411;47.060;15.064;2023-12-20T08:31:04;2.00;1.00
4795;DHT22;2411;47.060;15.064;2023-12-20T08:33:32;2.10;1.00
4795;DHT22;2411;47.060;15.064;2023-12-20T08:35:59;2.30;1.00
4795;DHT22;2411;47.060;15.064;2023-12-20T08:38:27;2.40;1.00
4795;DHT22;2411;47.060;15.064;2023-12-20T08:40:54;2.70;1.00
4795;DHT22;2411;47.060;15.064;2023-12-20T08:43:21;2.80;1.00
4795;DHT22;2411;47.060;15.064;2023-12-20T08:45:49;3.10;1.00
4795;DHT22;2411;47.060;15.064;2023-12-20T08:48:16;3.30;1.00
4795;DHT22;2411;47.060;15.064;2023-12-20T08:50:44;3.40;1.00
4795;DHT22;2411;47.060;15.064;2023-12-20T08:53:11;3.60;1.00
4795;DHT22;2411;47.060;15.064;2023-12-20T08:55:38;3.60;1.00
4795;DHT22;2411;47.060;15.064;2023-12-20T08:58:06;3.60;1.00
4795;DHT22;2411;47.060;15.064;2023-12-20T09:00:35;3.50;1.00
4795;DHT22;2411;47.060;15.064;2023-12-20T09:03:02;3.60;1.00
4795;DHT22;2411;47.060;15.064;2023-12-20T09:05:30;3.70;1.00
4795;DHT22;2411;47.060;15.064;2023-12-20T09:07:58;3.80;1.00
4795;DHT22;2411;47.060;15.064;2023-12-20T09:10:25;3.90;1.00
4795;DHT22;2411;47.060;15.064;2023-12-20T09:12:53;4.00;1.00
4795;DHT22;2411;47.060;15.064;2023-12-20T09:15:25;4.10;1.00
4795;DHT22;2411;47.060;15.064;2023-12-20T09:17:53;4.30;1.00
4795;DHT22;2411;47.060;15.064;2023-12-20T09:20:21;4.40;1.00
4795;DHT22;2411;47.060;15.064;2023-12-20T09:22:50;4.40;1.00
4795;DHT22;2411;47.060;15.064;2023-12-20T09:25:18;4.30;1.00
4795;DHT22;2411;47.060;15.064;2023-12-20T09:27:45;4.20;1.00
4795;DHT22;2411;47.060;15.064;2023-12-20T09:30:13;4.20;1.00
4795;DHT22;2411;47.060;15.064;2023-12-20T09:32:54;4.20;1.00
4795;DHT22;2411;47.060;15.064;2023-12-20T09:35:22;4.00;1.00
4795;DHT22;2411;47.060;15.064;2023-12-20T09:37:50;4.10;1.00
4795;DHT22;2411;47.060;15.064;2023-12-20T09:40:19;4.10;1.00
4795;DHT22;2411;47.060;15.064;2023-12-20T09:43:03;4.20;1.00
4795;DHT22;2411;47.060;15.064;2023-12-20T09:45:31;4.20;1.00
4795;DHT22;2411;47.060;15.064;2023-12-20T09:47:59;4.30;1.00
4795;DHT22;2411;47.060;15.064;2023-12-20T09:50:27;4.30;1.00
4795;DHT22;2411;47.060;15.064;2023-12-20T09:52:57;4.30;1.00
4795;DHT22;2411;47.060;15.064;2023-12-20T09:55:27;4.20;1.00
4795;DHT22;2411;47.060;15.064;2023-12-20T09:57:55;4.10;1.00
4795;DHT22;2411;47.060;15.064;2023-12-20T10:00:22;4.10;1.00
4795;DHT22;2411;47.060;15.064;2023-12-20T10:02:59;4.10;1.00
4795;DHT22;2411;47.060;15.064;2023-12-20T10:05:31;4.20;1.00
4795;DHT22;2411;47.060;15.064;2023-12-20T10:08:00;4.30;1.00
4795;DHT22;2411;47.060;15.064;2023-12-20T10:10:29;4.40;1.00
4795;DHT22;2411;47.060;15.064;2023-12-20T10:13:12;4.50;1.00
4795;DHT22;2411;47.060;15.064;2023-12-20T10:15:40;4.60;1.00
4795;DHT22;2411;47.060;15.064;2023-12-20T10:18:09;4.70;1.00
4795;DHT22;2411;47.060;15.064;2023-12-20T10:20:40;4.90;1.00
4795;DHT22;2411;47.060;15.064;2023-12-20T10:23:08;4.90;1.00
4795;DHT22;2411;47.060;15.064;2023-12-20T10:25:36;5.10;1.00
4795;DHT22;2411;47.060;15.064;2023-12-20T10:28:14;5.10;1.00
4795;DHT22;2411;47.060;15.064;2023-12-20T10:30:45;5.00;1.00
4795;DHT22;2411;47.060;15.064;2023-12-20T10:33:12;5.00;1.00
4795;DHT22;2411;47.060;15.064;2023-12-20T10:35:40;4.80;1.00
4795;DHT22;2411;47.060;15.064;2023-12-20T10:38:15;4.70;1.00
4795;DHT22;2411;47.060;15.064;2023-12-20T10:40:42;4.70;1.00
4795;DHT22;2411;47.060;15.064;2023-12-20T10:43:12;4.80;1.00
4795;DHT22;2411;47.060;15.064;2023-12-20T10:45:42;4.90;1.00
4795;DHT22;2411;47.060;15.064;2023-12-20T10:48:11;5.00;1.00
4795;DHT22;2411;47.060;15.064;2023-12-20T10:50:41;5.10;1.00
4795;DHT22;2411;47.060;15.064;2023-12-20T10:53:08;5.10;1.00
4795;DHT22;2411;47.060;15.064;2023-12-20T10:55:35;5.10;1.00
4795;DHT22;2411;47.060;15.064;2023-12-20T10:58:13;5.00;1.00
4795;DHT22;2411;47.060;15.064;2023-12-20T11:00:43;4.90;1.00
4795;DHT22;2411;47.060;15.064;2023-12-20T11:03:13;5.00;1.00
4795;DHT22;2411;47.060;15.064;2023-12-20T11:05:50;5.10;1.00
4795;DHT22;2411;47.060;15.064;2023-12-20T11:08:28;5.30;1.00
4795;DHT22;2411;47.060;15.064;2023-12-20T11:11:29;5.40;1.00
4795;DHT22;2411;47.060;15.064;2023-12-20T11:13:56;5.60;1.00
4795;DHT22;2411;47.060;15.064;2023-12-20T11:16:25;5.80;1.00
4795;DHT22;2411;47.060;15.064;2023-12-20T11:18:56;6.00;1.00
4795;DHT22;2411;47.060;15.064;2023-12-20T11:21:23;6.20;1.00
4795;DHT22;2411;47.060;15.064;2023-12-20T11:23:50;6.20;1.00
4795;DHT22;2411;47.060;15.064;2023-12-20T11:26:22;6.20;1.00
4795;DHT22;2411;47.060;15.064;2023-12-20T11:28:53;6.10;1.00
4795;DHT22;2411;47.060;15.064;2023-12-20T11:31:21;6.30;1.00
4795;DHT22;2411;47.060;15.064;2023-12-20T11:33:48;6.30;1.00
4795;DHT22;2411;47.060;15.064;2023-12-20T11:36:18;6.50;1.00
4795;DHT22;2411;47.060;15.064;2023-12-20T11:38:56;6.50;1.00
4795;DHT22;2411;47.060;15.064;2023-12-20T11:41:26;6.50;1.00
4795;DHT22;2411;47.060;15.064;2023-12-20T11:43:53;6.70;1.00
4795;DHT22;2411;47.060;15.064;2023-12-20T11:46:21;6.80;1.00
4795;DHT22;2411;47.060;15.064;2023-12-20T11:48:49;6.80;1.00
4795;DHT22;2411;47.060;15.064;2023-12-20T11:51:17;7.00;1.00
4795;DHT22;2411;47.060;15.064;2023-12-20T11:53:45;7.10;1.00
4795;DHT22;2411;47.060;15.064;2023-12-20T11:56:18;7.10;1.00
4795;DHT22;2411;47.060;15.064;2023-12-20T11:58:46;7.10;1.00
4795;DHT22;2411;47.060;15.064;2023-12-20T12:01:16;7.20;1.00
4795;DHT22;2411;47.060;15.064;2023-12-20T12:03:44;7.20;1.00
4795;DHT22;2411;47.060;15.064;2023-12-20T12:06:12;7.20;1.00
4795;DHT22;2411;47.060;15.064;2023-12-20T12:08:40;7.10;1.00
4795;DHT22;2411;47.060;15.064;2023-12-20T12:11:08;7.10;1.00
4795;DHT22;2411;47.060;15.064;2023-12-20T12:13:35;7.20;1.00
4795;DHT22;2411;47.060;15.064;2023-12-20T12:16:03;7.30;1.00
4795;DHT22;2411;47.060;15.064;2023-12-20T12:18:31;7.30;1.00
4795;DHT22;2411;47.060;15.064;2023-12-20T12:21:02;7.30;1.00
4795;DHT22;2411;47.060;15.064;2023-12-20T12:23:38;7.30;1.00
4795;DHT22;2411;47.060;15.064;2023-12-20T12:26:06;7.30;1.00
4795;DHT22;2411;47.060;15.064;2023-12-20T12:28:34;7.30;1.00
4795;DHT22;2411;47.060;15.064;2023-12-20T12:31:02;7.40;1.00
4795;DHT22;2411;47.060;15.064;2023-12-20T12:33:30;7.30;1.00
4795;DHT22;2411;47.060;15.064;2023-12-20T12:35:57;7.40;1.00
4795;DHT22;2411;47.060;15.064;2023-12-20T12:38:25;7.40;1.00
4795;DHT22;2411;47.060;15.064;2023-12-20T12:40:54;7.40;1.00
4795;DHT22;2411;47.060;15.064;2023-12-20T12:43:21;7.40;1.00
4795;DHT22;2411;47.060;15.064;2023-12-20T12:45:50;7.30;1.00
4795;DHT22;2411;47.060;15.064;2023-12-20T12:48:18;7.40;1.00
4795;DHT22;2411;47.060;15.064;2023-12-20T12:50:46;7.40;1.00
4795;DHT22;2411;47.060;15.064;2023-12-20T12:53:13;7.50;1.00
4795;DHT22;2411;47.060;15.064;2023-12-20T12:55:41;7.60;1.00
4795;DHT22;2411;47.060;15.064;2023-12-20T12:58:08;7.60;1.00
4795;DHT22;2411;47.060;15.064;2023-12-20T13:00:35;7.60;1.00
4795;DHT22;2411;47.060;15.064;2023-12-20T13:03:03;7.60;1.00
4795;DHT22;2411;47.060;15.064;2023-12-20T13:05:30;7.40;1.00
4795;DHT22;2411;47.060;15.064;2023-12-20T13:08:03;7.40;1.00
4795;DHT22;2411;47.060;15.064;2023-12-20T13:10:31;7.40;1.00
4795;DHT22;2411;47.060;15.064;2023-12-20T13:12:58;7.30;1.00
4795;DHT22;2411;47.060;15.064;2023-12-20T13:15:25;7.20;1.00
4795;DHT22;2411;47.060;15.064;2023-12-20T13:17:53;7.10;1.00
4795;DHT22;2411;47.060;15.064;2023-12-20T13:20:20;7.10;1.00
4795;DHT22;2411;47.060;15.064;2023-12-20T13:22:49;7.20;1.00
4795;DHT22;2411;47.060;15.064;2023-12-20T13:25:16;7.10;1.00
4795;DHT22;2411;47.060;15.064;2023-12-20T13:27:43;7.20;1.00
4795;DHT22;2411;47.060;15.064;2023-12-20T13:30:11;7.10;1.00
4795;DHT22;2411;47.060;15.064;2023-12-20T13:32:39;7.10;1.00
4795;DHT22;2411;47.060;15.064;2023-12-20T13:35:07;7.10;1.00
4795;DHT22;2411;47.060;15.064;2023-12-20T13:37:35;7.10;1.00
4795;DHT22;2411;47.060;15.064;2023-12-20T13:40:02;7.10;1.00
4795;DHT22;2411;47.060;15.064;2023-12-20T13:42:31;7.20;1.00
4795;DHT22;2411;47.060;15.064;2023-12-20T13:44:59;7.10;1.00
4795;DHT22;2411;47.060;15.064;2023-12-20T13:47:26;7.00;1.00
4795;DHT22;2411;47.060;15.064;2023-12-20T13:49:53;6.90;1.00
4795;DHT22;2411;47.060;15.064;2023-12-20T13:52:21;6.90;1.00
4795;DHT22;2411;47.060;15.064;2023-12-20T13:54:48;6.80;1.00
4795;DHT22;2411;47.060;15.064;2023-12-20T13:57:16;6.70;1.00
4795;DHT22;2411;47.060;15.064;2023-12-20T13:59:47;6.70;1.00
4795;DHT22;2411;47.060;15.064;2023-12-20T14:02:15;6.70;1.00
4795;DHT22;2411;47.060;15.064;2023-12-20T14:04:43;6.60;1.00
4795;DHT22;2411;47.060;15.064;2023-12-20T14:07:11;6.50;1.00
4795;DHT22;2411;47.060;15.064;2023-12-20T14:09:40;6.40;1.00
4795;DHT22;2411;47.060;15.064;2023-12-20T14:12:14;6.30;1.00
4795;DHT22;2411;47.060;15.064;2023-12-20T14:14:41;6.10;1.00
4795;DHT22;2411;47.060;15.064;2023-12-20T14:17:09;6.00;1.00
4795;DHT22;2411;47.060;15.064;2023-12-20T14:19:36;5.80;1.00
4795;DHT22;2411;47.060;15.064;2023-12-20T14:22:04;5.60;1.00
4795;DHT22;2411;47.060;15.064;2023-12-20T14:24:31;5.40;1.00
4795;DHT22;2411;47.060;15.064;2023-12-20T14:26:59;5.20;1.00
4795;DHT22;2411;47.060;15.064;2023-12-20T14:29:26;5.10;1.00
4795;DHT22;2411;47.060;15.064;2023-12-20T14:31:54;5.10;1.00
4795;DHT22;2411;47.060;15.064;2023-12-20T14:34:21;5.10;1.00
4795;DHT22;2411;47.060;15.064;2023-12-20T14:36:51;4.90;1.00
4795;DHT22;2411;47.060;15.064;2023-12-20T14:39:19;5.10;1.00
4795;DHT22;2411;47.060;15.064;2023-12-20T14:41:47;5.20;1.00
4795;DHT22;2411;47.060;15.064;2023-12-20T14:44:14;5.20;1.00
4795;DHT22;2411;47.060;15.064;2023-12-20T14:46:41;4.90;1.00
4795;DHT22;2411;47.060;15.064;2023-12-20T14:49:09;4.70;1.00
4795;DHT22;2411;47.060;15.064;2023-12-20T14:51:36;4.80;1.00
4795;DHT22;2411;47.060;15.064;2023-12-20T14:54:05;4.70;1.00
4795;DHT22;2411;47.060;15.064;2023-12-20T14:56:36;4.80;1.00
4795;DHT22;2411;47.060;15.064;2023-12-20T14:59:04;4.60;1.00
4795;DHT22;2411;47.060;15.064;2023-12-20T15:01:32;5.00;1.00
4795;DHT22;2411;47.060;15.064;2023-12-20T15:03:59;4.90;1.00
4795;DHT22;2411;47.060;15.064;2023-12-20T15:06:27;5.00;1.00
4795;DHT22;2411;47.060;15.064;2023-12-20T15:08:55;4.80;1.00
4795;DHT22;2411;47.060;15.064;2023-12-20T15:11:22;4.40;1.00
4795;DHT22;2411;47.060;15.064;2023-12-20T15:13:50;4.10;1.00
4795;DHT22;2411;47.060;15.064;2023-12-20T15:16:23;3.90;1.00
4795;DHT22;2411;47.060;15.064;2023-12-20T15:18:50;3.70;1.00
4795;DHT22;2411;47.060;15.064;2023-12-20T15:21:18;3.40;1.00
4795;DHT22;2411;47.060;15.064;2023-12-20T15:23:45;3.30;1.00
4795;DHT22;2411;47.060;15.064;2023-12-20T15:26:33;3.30;1.00
4795;DHT22;2411;47.060;15.064;2023-12-20T15:29:00;3.40;1.00
4795;DHT22;2411;47.060;15.064;2023-12-20T15:31:28;3.50;1.00
4795;DHT22;2411;47.060;15.064;2023-12-20T15:33:55;3.50;1.00
4795;DHT22;2411;47.060;15.064;2023-12-20T15:36:23;3.70;1.00
4795;DHT22;2411;47.060;15.064;2023-12-20T15:38:50;3.80;1.00
4795;DHT22;2411;47.060;15.064;2023-12-20T15:41:22;3.80;1.00
4795;DHT22;2411;47.060;15.064;2023-12-20T15:43:50;4.00;1.00
4795;DHT22;2411;47.060;15.064;2023-12-20T15:46:18;4.00;1.00
4795;DHT22;2411;47.060;15.064;2023-12-20T15:48:45;3.90;1.00
4795;DHT22;2411;47.060;15.064;2023-12-20T15:51:14;4.00;1.00
4795;DHT22;2411;47.060;15.064;2023-12-20T15:53:42;4.00;1.00
4795;DHT22;2411;47.060;15.064;2023-12-20T15:56:10;3.80;1.00
4795;DHT22;2411;47.060;15.064;2023-12-20T15:58:38;3.50;1.00
4795;DHT22;2411;47.060;15.064;2023-12-20T16:01:05;3.20;1.00
4795;DHT22;2411;47.060;15.064;2023-12-20T16:03:33;3.00;1.00
4795;DHT22;2411;47.060;15.064;2023-12-20T16:06:10;3.10;1.00
4795;DHT22;2411;47.060;15.064;2023-12-20T16:08:38;2.70;1.00
4795;DHT22;2411;47.060;15.064;2023-12-20T16:11:06;2.60;1.00
4795;DHT22;2411;47.060;15.064;2023-12-20T16:13:34;2.60;1.00
4795;DHT22;2411;47.060;15.064;2023-12-20T16:16:02;2.60;1.00
4795;DHT22;2411;47.060;15.064;2023-12-20T16:18:32;2.60;1.00